Time;durP1;ratioP1;P1;durP2;ratioP2;P2;SDS_P1;SDS_P2;PMS_P1;PMS_P2;Temp;Humidity;BMP_temperature;BMP_pressure;BME280_temperature;BME280_humidity;BME280_pressure;Samples;Min_cycle;Max_cycle;Signal;HPM_P1;HPM_P2
2022/10/14 00:00:19;;;;;;;15.03;13.57;;;14.30;99.90;;;;;;5036545;28;20258;-73
2022/10/14 00:02:45;;;;;;;15.30;13.07;;;14.30;99.90;;;;;;5036942;28;20267;-72
2022/10/14 00:05:11;;;;;;;16.40;14.57;;;14.30;99.90;;;;;;5037584;28;20243;-72
2022/10/14 00:07:37;;;;;;;17.13;13.77;;;14.30;99.90;;;;;;5037630;28;20235;-77
2022/10/14 00:10:04;;;;;;;14.77;13.13;;;14.30;99.90;;;;;;5020389;28;20185;-75
2022/10/14 00:12:32;;;;;;;14.77;13.37;;;14.30;99.90;;;;;;5026344;28;20243;-78
2022/10/14 00:14:58;;;;;;;14.47;13.13;;;14.30;99.90;;;;;;5028124;28;20177;-74
2022/10/14 00:17:24;;;;;;;13.10;11.90;;;14.30;99.90;;;;;;5018883;28;20231;-77
2022/10/14 00:19:50;;;;;;;14.23;12.83;;;14.30;99.90;;;;;;5048881;28;20522;-74
2022/10/14 00:22:15;;;;;;;16.47;14.57;;;14.30;99.90;;;;;;5037298;28;20755;-76
2022/10/14 00:24:41;;;;;;;14.67;13.27;;;14.30;99.90;;;;;;5021329;28;20189;-75
2022/10/14 00:27:07;;;;;;;13.77;12.20;;;14.40;99.90;;;;;;5030830;28;20177;-79
2022/10/14 00:29:33;;;;;;;15.03;13.53;;;14.30;99.90;;;;;;5031929;28;20464;-76
2022/10/14 00:31:59;;;;;;;14.43;12.93;;;14.30;99.90;;;;;;5026060;28;20258;-79
2022/10/14 00:34:24;;;;;;;13.70;12.30;;;14.30;99.90;;;;;;5029400;28;20191;-79
2022/10/14 00:36:50;;;;;;;14.57;13.03;;;14.30;99.90;;;;;;5036980;28;20177;-71
2022/10/14 00:39:16;;;;;;;12.83;11.53;;;14.30;99.90;;;;;;5036017;28;20234;-72
2022/10/14 00:41:42;;;;;;;14.77;13.23;;;14.30;99.90;;;;;;5035735;28;20588;-73
2022/10/14 00:44:14;;;;;;;13.57;12.27;;;14.30;99.90;;;;;;5027866;28;20192;-71
2022/10/14 00:46:47;;;;;;;13.43;11.70;;;14.30;99.90;;;;;;5024126;28;20486;-70
2022/10/14 00:49:17;;;;;;;13.53;11.23;;;14.30;99.90;;;;;;5029183;28;20489;-72
2022/10/14 00:52:12;;;;;;;13.73;12.27;;;14.30;99.90;;;;;;5036396;28;20209;-71
2022/10/14 00:54:42;;;;;;;12.53;11.23;;;14.30;99.90;;;;;;5034256;28;20197;-70
2022/10/14 00:57:10;;;;;;;12.83;11.47;;;14.30;99.90;;;;;;5032038;28;20195;-74
2022/10/14 00:59:36;;;;;;;11.93;10.73;;;14.30;99.90;;;;;;5031595;28;20187;-74
2022/10/14 01:02:02;;;;;;;12.03;10.80;;;14.30;99.90;;;;;;5042287;28;20588;-73
2022/10/14 01:04:28;;;;;;;12.93;11.47;;;14.40;99.90;;;;;;5036222;28;20180;-73
2022/10/14 01:07:09;;;;;;;12.80;11.07;;;14.30;99.90;;;;;;5036388;28;20536;-76
2022/10/14 01:10:00;;;;;;;12.10;11.00;;;14.30;99.90;;;;;;5032197;28;20180;-73
2022/10/14 01:12:49;;;;;;;13.60;11.77;;;14.40;99.90;;;;;;5025886;28;20201;-79
2022/10/14 01:15:31;;;;;;;12.83;11.60;;;14.30;99.90;;;;;;5047207;28;20205;-78
2022/10/14 01:18:04;;;;;;;13.07;11.87;;;14.30;99.90;;;;;;5030406;28;20699;-75
2022/10/14 01:21:00;;;;;;;13.40;12.03;;;14.40;99.90;;;;;;5021372;28;20473;-75
2022/10/14 01:23:32;;;;;;;13.53;12.23;;;14.40;99.90;;;;;;5034011;28;20188;-72
2022/10/14 01:26:19;;;;;;;17.00;12.53;;;14.40;99.90;;;;;;5032385;28;20267;-79
2022/10/14 01:29:13;;;;;;;13.63;12.20;;;14.40;99.90;;;;;;5031645;28;20219;-79
2022/10/14 01:31:46;;;;;;;13.50;12.03;;;14.30;99.90;;;;;;5035381;28;20286;-77
2022/10/14 01:34:15;;;;;;;14.93;13.23;;;14.30;99.90;;;;;;5028795;28;20181;-71
2022/10/14 01:36:57;;;;;;;16.17;14.07;;;14.10;99.90;;;;;;5029428;28;20584;-77
2022/10/14 01:39:26;;;;;;;14.37;12.87;;;14.20;99.90;;;;;;5035336;28;20259;-78
2022/10/14 01:41:57;;;;;;;13.03;11.63;;;14.30;99.90;;;;;;5027712;28;20207;-78
2022/10/14 01:44:25;;;;;;;16.43;13.33;;;14.20;99.90;;;;;;5017891;28;20185;-78
2022/10/14 01:46:54;;;;;;;14.40;12.97;;;14.30;99.90;;;;;;5018265;28;20208;-77
2022/10/14 01:49:40;;;;;;;15.97;14.20;;;14.30;99.90;;;;;;5032740;28;20180;-79
2022/10/14 01:52:12;;;;;;;16.17;12.97;;;14.30;99.90;;;;;;5028869;28;20303;-73
2022/10/14 01:54:41;;;;;;;13.53;12.20;;;14.30;99.90;;;;;;5050934;28;20169;-75
2022/10/14 01:57:12;;;;;;;13.03;11.70;;;14.20;99.90;;;;;;5031625;28;20187;-70
2022/10/14 01:59:39;;;;;;;13.47;12.23;;;14.30;99.90;;;;;;5025858;28;20173;-71
2022/10/14 02:02:04;;;;;;;15.30;12.23;;;14.20;99.90;;;;;;5024513;28;20195;-70
2022/10/14 02:04:30;;;;;;;18.77;13.27;;;14.20;99.90;;;;;;5024895;28;20492;-70
2022/10/14 02:07:24;;;;;;;13.43;11.77;;;14.20;99.90;;;;;;5022487;28;20177;-72
2022/10/14 02:10:22;;;;;;;13.87;11.80;;;14.30;99.90;;;;;;5029456;28;20584;-73
2022/10/14 02:13:06;;;;;;;13.43;11.77;;;14.20;99.90;;;;;;5022882;28;20220;-76
2022/10/14 02:15:46;;;;;;;12.23;10.73;;;14.20;99.90;;;;;;5044249;28;20266;-78
2022/10/14 02:18:30;;;;;;;13.40;12.07;;;14.30;99.90;;;;;;5028003;28;20213;-76
2022/10/14 02:21:25;;;;;;;14.53;12.97;;;14.30;99.90;;;;;;5044689;28;20222;-75
2022/10/14 02:24:33;;;;;;;13.87;12.47;;;14.20;99.90;;;;;;5035660;28;20539;-77
2022/10/14 02:27:02;;;;;;;12.43;11.30;;;14.30;99.90;;;;;;5011242;28;20608;-77
2022/10/14 02:29:30;;;;;;;14.27;12.57;;;14.30;99.90;;;;;;5033354;28;20538;-79
2022/10/14 02:31:58;;;;;;;12.13;11.03;;;14.30;99.90;;;;;;5017475;28;20193;-79
2022/10/14 02:34:24;;;;;;;13.43;12.03;;;14.20;99.90;;;;;;5029447;28;20495;-80
2022/10/14 02:36:52;;;;;;;13.60;12.27;;;14.30;99.90;;;;;;5030074;28;20177;-76
2022/10/14 02:39:27;;;;;;;12.90;11.20;;;14.30;99.90;;;;;;5035280;28;20625;-77
2022/10/14 02:41:52;;;;;;;12.43;11.33;;;14.20;99.90;;;;;;5034833;28;20259;-80
2022/10/14 02:44:18;;;;;;;12.27;11.07;;;14.20;99.90;;;;;;5031022;28;20276;-80
2022/10/14 02:46:44;;;;;;;10.90;9.77;;;14.20;99.90;;;;;;5029054;28;20244;-76
2022/10/14 02:49:10;;;;;;;13.10;10.83;;;14.30;99.90;;;;;;5026003;28;20193;-77
2022/10/14 02:51:36;;;;;;;10.73;9.63;;;14.20;99.90;;;;;;5037738;28;20282;-79
2022/10/14 02:54:01;;;;;;;13.80;10.97;;;14.20;99.90;;;;;;5038708;28;20177;-77
2022/10/14 02:56:28;;;;;;;12.17;10.97;;;14.30;99.90;;;;;;5033521;28;20181;-78
2022/10/14 02:58:54;;;;;;;11.90;10.70;;;14.30;99.90;;;;;;5030481;28;20251;-79
2022/10/14 03:01:19;;;;;;;10.87;9.87;;;14.20;99.90;;;;;;5033123;28;20280;-78
2022/10/14 03:03:45;;;;;;;13.67;12.27;;;14.30;99.90;;;;;;5029479;28;20224;-77
2022/10/14 03:06:11;;;;;;;12.50;11.03;;;14.30;99.90;;;;;;5025334;28;20277;-78
2022/10/14 03:08:37;;;;;;;11.27;10.17;;;14.30;99.90;;;;;;5032263;28;20487;-77
2022/10/14 03:11:03;;;;;;;13.67;10.60;;;14.30;99.90;;;;;;5033786;28;20287;-79
2022/10/14 03:13:28;;;;;;;10.90;9.90;;;14.30;99.90;;;;;;5053890;28;20184;-79
2022/10/14 03:15:54;;;;;;;11.27;9.73;;;14.30;99.90;;;;;;5031968;28;20223;-79
2022/10/14 03:18:20;;;;;;;11.27;10.13;;;14.30;99.90;;;;;;5037154;28;20191;-79
2022/10/14 03:20:46;;;;;;;10.53;9.63;;;14.20;99.90;;;;;;5036713;28;20176;-77
2022/10/14 03:23:13;;;;;;;11.63;9.43;;;14.30;99.90;;;;;;5022376;28;20485;-77
2022/10/14 03:25:39;;;;;;;12.30;10.40;;;14.30;99.90;;;;;;5035951;28;20184;-76
2022/10/14 03:28:05;;;;;;;10.53;9.43;;;14.20;99.90;;;;;;5032982;28;20180;-77
2022/10/14 03:30:31;;;;;;;10.87;9.80;;;14.30;99.90;;;;;;5035980;28;20181;-76
2022/10/14 03:32:57;;;;;;;10.63;9.50;;;14.30;99.90;;;;;;5053500;28;20620;-76
2022/10/14 03:35:23;;;;;;;11.00;9.80;;;14.30;99.90;;;;;;5038116;28;20176;-76
2022/10/14 03:37:48;;;;;;;10.67;9.57;;;14.30;99.90;;;;;;5037497;28;20185;-76
2022/10/14 03:40:14;;;;;;;11.83;10.60;;;14.30;99.90;;;;;;5020248;28;20193;-77
2022/10/14 03:42:41;;;;;;;11.30;9.90;;;14.20;99.90;;;;;;5036161;28;20204;-77
2022/10/14 03:45:07;;;;;;;10.50;9.47;;;14.20;99.90;;;;;;5028836;28;20675;-74
2022/10/14 03:47:33;;;;;;;10.20;9.20;;;14.20;99.90;;;;;;5028384;28;20187;-79
2022/10/14 03:49:59;;;;;;;13.87;11.77;;;14.20;99.90;;;;;;5024749;28;20185;-77
2022/10/14 03:52:25;;;;;;;11.10;9.73;;;14.20;99.90;;;;;;5031784;28;20293;-78
2022/10/14 03:54:51;;;;;;;10.70;9.70;;;14.20;99.90;;;;;;5034318;28;20544;-76
2022/10/14 03:57:16;;;;;;;12.57;10.30;;;14.20;99.90;;;;;;5037479;28;20177;-73
2022/10/14 03:59:43;;;;;;;11.73;9.40;;;14.20;99.90;;;;;;5027669;28;20199;-79
2022/10/14 04:02:08;;;;;;;11.80;10.07;;;14.30;99.90;;;;;;5031168;28;20204;-79
2022/10/14 04:04:34;;;;;;;12.67;9.90;;;14.20;99.90;;;;;;5032727;28;20185;-80
2022/10/14 04:07:00;;;;;;;10.87;9.80;;;14.20;99.90;;;;;;5028377;28;20184;-79
2022/10/14 04:09:26;;;;;;;13.27;9.73;;;14.20;99.90;;;;;;5031898;28;20494;-77
2022/10/14 04:11:52;;;;;;;12.53;10.17;;;14.20;99.90;;;;;;5037031;28;20254;-79
2022/10/14 04:14:17;;;;;;;12.23;9.63;;;14.20;99.90;;;;;;5032317;28;20525;-73
2022/10/14 04:16:43;;;;;;;11.63;8.87;;;14.20;99.90;;;;;;5035475;28;20611;-77
2022/10/14 04:19:09;;;;;;;13.40;11.37;;;14.20;99.90;;;;;;5023424;28;20180;-78
2022/10/14 04:21:34;;;;;;;13.73;11.00;;;14.20;99.90;;;;;;5043762;28;20180;-80
2022/10/14 04:24:00;;;;;;;12.10;9.90;;;14.20;99.90;;;;;;5046114;28;20180;-78
2022/10/14 04:26:26;;;;;;;11.10;10.00;;;14.20;99.90;;;;;;5037331;28;20253;-78
2022/10/14 04:28:52;;;;;;;12.50;11.17;;;14.20;99.90;;;;;;5029777;28;20189;-79
2022/10/14 04:31:17;;;;;;;15.33;11.37;;;14.20;99.90;;;;;;5036686;28;20196;-75
2022/10/14 04:33:43;;;;;;;11.87;10.67;;;14.20;99.90;;;;;;5024043;28;20199;-77
2022/10/14 04:36:09;;;;;;;11.77;10.57;;;14.20;99.90;;;;;;5029798;28;20169;-76
2022/10/14 04:38:34;;;;;;;13.10;10.60;;;14.20;99.90;;;;;;5036237;28;20485;-75
2022/10/14 04:41:00;;;;;;;11.60;10.00;;;14.20;99.90;;;;;;5036823;28;20235;-78
2022/10/14 04:43:26;;;;;;;13.67;11.30;;;14.20;99.90;;;;;;5030569;28;20264;-79
2022/10/14 04:45:53;;;;;;;13.80;11.03;;;14.20;99.90;;;;;;5025400;28;20649;-77
2022/10/14 04:48:18;;;;;;;11.27;9.10;;;14.10;99.90;;;;;;5036759;28;20173;-78
2022/10/14 04:50:44;;;;;;;14.47;11.33;;;14.20;99.90;;;;;;5023669;28;20173;-78
2022/10/14 04:53:10;;;;;;;12.30;10.83;;;14.10;99.90;;;;;;5029283;28;20530;-72
2022/10/14 04:55:36;;;;;;;14.83;11.87;;;14.20;99.90;;;;;;5018919;28;20212;-78
2022/10/14 04:58:02;;;;;;;14.47;11.17;;;14.20;99.90;;;;;;5036228;28;20192;-78
2022/10/14 05:00:28;;;;;;;15.60;11.40;;;14.20;99.90;;;;;;5031105;28;20180;-72
2022/10/14 05:02:54;;;;;;;17.00;11.53;;;14.10;99.90;;;;;;5033610;28;20188;-80
2022/10/14 05:05:20;;;;;;;13.83;11.20;;;14.10;99.90;;;;;;5034502;28;20189;-77
2022/10/14 05:07:45;;;;;;;20.40;12.03;;;14.20;99.90;;;;;;5028900;28;20597;-77
2022/10/14 05:10:11;;;;;;;15.40;11.33;;;14.20;99.90;;;;;;5031313;28;20220;-70
2022/10/14 05:12:38;;;;;;;15.33;12.33;;;14.10;99.90;;;;;;5028397;28;20216;-71
2022/10/14 05:15:05;;;;;;;13.03;10.50;;;14.10;99.90;;;;;;5032841;28;20966;-70
2022/10/14 05:17:32;;;;;;;17.57;12.53;;;14.10;99.90;;;;;;5051181;28;20242;-71
2022/10/14 05:19:58;;;;;;;18.47;11.90;;;14.10;99.90;;;;;;5036100;28;20211;-74
2022/10/14 05:22:24;;;;;;;14.87;11.53;;;14.00;99.90;;;;;;5051381;28;20203;-72
2022/10/14 05:24:50;;;;;;;20.03;11.53;;;14.10;99.90;;;;;;5053525;28;20193;-77
2022/10/14 05:27:16;;;;;;;18.40;13.63;;;14.10;99.90;;;;;;5037052;28;20643;-73
2022/10/14 05:29:44;;;;;;;12.33;11.07;;;14.00;99.90;;;;;;5042614;28;20215;-69
2022/10/14 05:32:11;;;;;;;19.20;12.90;;;13.90;99.90;;;;;;5032108;28;20211;-77
2022/10/14 05:34:36;;;;;;;20.90;14.63;;;13.90;99.90;;;;;;5038010;28;20195;-79
2022/10/14 05:37:03;;;;;;;15.83;12.57;;;13.90;99.90;;;;;;5025117;28;20469;-72
2022/10/14 05:39:30;;;;;;;15.63;13.20;;;13.80;99.90;;;;;;5029777;28;20241;-70
2022/10/14 05:41:56;;;;;;;16.03;12.80;;;13.80;99.90;;;;;;5030377;28;20181;-77
2022/10/14 05:44:21;;;;;;;16.97;13.03;;;13.80;99.90;;;;;;5024211;28;20271;-77
2022/10/14 05:46:47;;;;;;;15.13;12.87;;;13.80;99.90;;;;;;5030969;28;20180;-77
2022/10/14 05:49:13;;;;;;;16.77;12.13;;;13.80;99.90;;;;;;5032410;28;20189;-80
2022/10/14 05:51:39;;;;;;;20.73;11.83;;;13.80;99.90;;;;;;5016911;28;20204;-76
2022/10/14 05:54:05;;;;;;;16.50;12.37;;;13.80;99.90;;;;;;5035478;28;20613;-76
2022/10/14 05:56:30;;;;;;;18.10;13.70;;;13.80;99.90;;;;;;5020099;28;20189;-79
2022/10/14 05:58:56;;;;;;;15.77;13.57;;;13.70;99.90;;;;;;5028065;28;20184;-79
2022/10/14 06:01:22;;;;;;;14.33;11.60;;;13.70;99.90;;;;;;5020290;28;20193;-76
2022/10/14 06:03:51;;;;;;;17.20;12.03;;;13.60;99.90;;;;;;5017574;28;20182;-75
2022/10/14 06:06:17;;;;;;;13.97;10.50;;;13.70;99.90;;;;;;5031048;28;20650;-71
2022/10/14 06:08:44;;;;;;;12.87;11.23;;;13.70;99.90;;;;;;5035318;28;20185;-76
2022/10/14 06:11:10;;;;;;;13.67;10.03;;;13.60;99.90;;;;;;5025184;28;20589;-76
2022/10/14 06:13:37;;;;;;;13.57;11.63;;;13.60;99.90;;;;;;5041068;28;20181;-76
2022/10/14 06:16:04;;;;;;;15.77;11.03;;;13.10;99.90;;;;;;5035231;28;20267;-74
2022/10/14 06:18:30;;;;;;;13.27;9.23;;;13.00;99.90;;;;;;5035524;28;20750;-78
2022/10/14 06:20:56;;;;;;;13.33;10.37;;;12.80;99.90;;;;;;5030427;28;20231;-76
2022/10/14 06:23:22;;;;;;;22.30;9.97;;;13.00;99.90;;;;;;5023887;28;20185;-72
2022/10/14 06:25:48;;;;;;;12.93;10.33;;;13.00;99.90;;;;;;5035237;28;20226;-71
2022/10/14 06:28:13;;;;;;;14.53;9.97;;;12.20;99.90;;;;;;5034276;28;20197;-69
2022/10/14 06:30:39;;;;;;;10.77;9.67;;;11.00;99.90;;;;;;5032186;28;20252;-69
2022/10/14 06:33:05;;;;;;;10.87;9.63;;;-12.30;99.90;;;;;;5024645;28;20208;-72
2022/10/14 06:35:30;;;;;;;15.77;10.73;;;-13.10;99.90;;;;;;5037776;28;20565;-70
2022/10/14 06:37:56;;;;;;;12.37;9.83;;;-12.00;99.90;;;;;;5033484;28;20592;-71
2022/10/14 06:40:22;;;;;;;11.87;10.77;;;-11.30;99.90;;;;;;5038655;28;20188;-70
2022/10/14 06:42:48;;;;;;;12.13;10.60;;;-14.10;99.90;;;;;;5034118;28;20180;-70
2022/10/14 06:45:14;;;;;;;10.93;9.33;;;-12.10;99.90;;;;;;5031751;28;20189;-70
2022/10/14 06:47:39;;;;;;;14.73;11.63;;;-12.10;99.90;;;;;;5038700;28;20189;-70
2022/10/14 06:50:06;;;;;;;13.27;11.87;;;-12.90;99.90;;;;;;5033652;28;20189;-72
2022/10/14 06:52:31;;;;;;;15.00;10.93;;;-13.20;99.90;;;;;;5031210;28;20326;-71
2022/10/14 06:54:57;;;;;;;14.07;12.07;;;-13.20;99.90;;;;;;5034992;28;20260;-69
2022/10/14 06:57:23;;;;;;;11.93;10.77;;;-12.10;99.90;;;;;;5038762;28;20191;-71
2022/10/14 06:59:49;;;;;;;15.87;12.37;;;-14.90;99.90;;;;;;5038266;28;20188;-70
2022/10/14 07:02:14;;;;;;;16.13;12.37;;;-13.60;99.90;;;;;;5038736;28;20196;-69
2022/10/14 07:04:40;;;;;;;16.43;11.47;;;-11.50;99.90;;;;;;5038430;28;20192;-70
2022/10/14 07:07:07;;;;;;;12.30;11.10;;;-11.60;99.90;;;;;;5038476;28;20200;-69
2022/10/14 07:09:33;;;;;;;14.70;10.60;;;-12.40;99.90;;;;;;5054079;28;20185;-70
2022/10/14 07:11:58;;;;;;;17.23;11.93;;;-10.20;99.90;;;;;;5044153;28;20774;-72
2022/10/14 07:14:24;;;;;;;13.30;10.40;;;-11.50;99.90;;;;;;5028252;28;20619;-70
2022/10/14 07:16:51;;;;;;;14.10;10.43;;;-11.30;99.90;;;;;;5029011;28;20551;-69
2022/10/14 07:19:17;;;;;;;13.80;11.13;;;-10.50;99.90;;;;;;5034706;28;20184;-71
2022/10/14 07:21:45;;;;;;;11.97;10.77;;;-11.30;99.90;;;;;;5025462;28;20180;-70
2022/10/14 07:24:11;;;;;;;13.40;11.40;;;-13.70;99.90;;;;;;5037911;28;20242;-71
2022/10/14 07:26:37;;;;;;;12.40;11.20;;;-15.00;99.90;;;;;;5038281;28;20180;-71
2022/10/14 07:29:04;;;;;;;14.77;12.47;;;-14.30;99.90;;;;;;5028230;28;20208;-71
2022/10/14 07:31:30;;;;;;;11.60;9.97;;;-17.80;99.90;;;;;;5022512;28;20259;-69
2022/10/14 07:33:56;;;;;;;12.13;10.33;;;-13.60;99.90;;;;;;5032182;28;20205;-70
2022/10/14 07:36:22;;;;;;;13.20;11.60;;;-12.30;99.90;;;;;;5030582;28;20200;-69
2022/10/14 07:38:48;;;;;;;12.67;11.37;;;-13.80;99.90;;;;;;5034981;28;20172;-71
2022/10/14 07:41:20;;;;;;;13.07;11.67;;;-13.10;99.90;;;;;;5022879;28;20613;-70
2022/10/14 07:43:54;;;;;;;11.93;10.67;;;-16.30;99.90;;;;;;5034466;28;20525;-70
2022/10/14 07:46:28;;;;;;;12.67;10.07;;;-14.70;99.90;;;;;;5035162;28;20184;-70
2022/10/14 07:49:19;;;;;;;11.60;9.17;;;-18.90;99.90;;;;;;5032884;28;20176;-75
2022/10/14 07:51:46;;;;;;;11.17;10.13;;;-13.90;99.90;;;;;;5038197;28;20248;-77
2022/10/14 07:54:15;;;;;;;11.57;10.13;;;-15.40;99.90;;;;;;5036663;28;20192;-69
2022/10/14 07:56:42;;;;;;;11.23;9.13;;;-15.10;99.90;;;;;;5039328;28;20181;-69
2022/10/14 07:59:08;;;;;;;12.77;10.40;;;-15.60;99.90;;;;;;5025475;28;20179;-74
2022/10/14 08:01:34;;;;;;;10.10;9.10;;;-15.70;99.90;;;;;;5037333;28;20501;-71
2022/10/14 08:04:00;;;;;;;11.43;10.40;;;-16.20;99.90;;;;;;5037412;28;20185;-70
2022/10/14 08:06:26;;;;;;;9.97;9.07;;;-16.10;99.90;;;;;;5025587;28;20532;-71
2022/10/14 08:08:52;;;;;;;15.70;14.30;;;-15.80;99.90;;;;;;5030222;28;20211;-70
2022/10/14 08:11:26;;;;;;;16.80;15.40;;;-18.30;99.90;;;;;;5029122;28;20201;-71
2022/10/14 08:13:52;;;;;;;12.23;10.90;;;-20.00;99.90;;;;;;5031212;28;20267;-70
2022/10/14 08:16:27;;;;;;;12.10;10.90;;;-18.20;99.90;;;;;;5036153;28;20204;-70
2022/10/14 08:18:55;;;;;;;10.43;9.43;;;-21.20;99.90;;;;;;5031875;28;20530;-69
2022/10/14 08:21:21;;;;;;;11.17;8.67;;;-22.40;99.90;;;;;;5032898;28;20523;-69
2022/10/14 08:23:48;;;;;;;9.63;8.73;;;-20.30;99.90;;;;;;5031050;28;20189;-75
2022/10/14 08:26:28;;;;;;;9.53;8.73;;;-19.90;99.90;;;;;;5032828;28;20193;-67
2022/10/14 08:28:54;;;;;;;10.50;9.50;;;-22.40;99.90;;;;;;5032254;28;20180;-73
2022/10/14 08:31:20;;;;;;;10.80;9.70;;;-20.80;99.90;;;;;;5027019;28;20243;-76
2022/10/14 08:33:47;;;;;;;10.10;8.17;;;-16.90;99.90;;;;;;5018487;28;20223;-71
2022/10/14 08:36:13;;;;;;;7.63;6.93;;;-17.40;99.90;;;;;;5017770;28;20189;-69
2022/10/14 08:38:40;;;;;;;8.63;7.83;;;-21.30;99.90;;;;;;5016630;28;20239;-72
2022/10/14 08:41:36;;;;;;;8.43;7.63;;;-21.50;99.90;;;;;;5018031;28;20551;-70
2022/10/14 08:44:19;;;;;;;7.97;7.17;;;-21.80;99.90;;;;;;5031924;28;20264;-78
2022/10/14 08:46:56;;;;;;;7.97;7.17;;;-22.50;99.90;;;;;;5021449;28;20173;-80
2022/10/14 08:49:46;;;;;;;8.43;7.63;;;-19.30;99.90;;;;;;5027060;28;20181;-80
2022/10/14 08:52:17;;;;;;;7.63;6.13;;;-17.50;99.90;;;;;;5031528;28;20205;-78
2022/10/14 08:54:54;;;;;;;6.77;6.07;;;-16.10;99.90;;;;;;5030761;28;20188;-74
2022/10/14 08:57:25;;;;;;;7.67;6.97;;;-21.60;99.90;;;;;;5034553;28;20187;-77
2022/10/14 08:59:51;;;;;;;5.67;5.27;;;-20.00;99.90;;;;;;5024140;28;20231;-69
2022/10/14 09:02:43;;;;;;;5.30;4.83;;;-18.70;99.90;;;;;;5030007;28;20196;-69
2022/10/14 09:05:19;;;;;;;4.93;4.50;;;-20.80;99.90;;;;;;5022928;28;20196;-69
2022/10/14 09:07:48;;;;;;;7.97;4.97;;;-18.80;99.90;;;;;;5028684;28;20454;-71
2022/10/14 09:10:23;;;;;;;6.57;3.87;;;-17.20;99.90;;;;;;5028578;28;20177;-70
2022/10/14 09:12:52;;;;;;;4.67;4.20;;;-24.00;99.90;;;;;;5050863;28;20216;-69
2022/10/14 09:15:26;;;;;;;5.07;4.57;;;-16.90;99.90;;;;;;5031151;28;20224;-79
2022/10/14 09:18:00;;;;;;;3.87;3.50;;;-20.80;99.90;;;;;;5035515;28;20184;-75
2022/10/14 09:20:26;;;;;;;6.93;3.83;;;-17.00;99.90;;;;;;5017931;28;20181;-75
2022/10/14 09:23:04;;;;;;;3.97;3.63;;;-16.60;99.90;;;;;;5033830;28;20191;-77
2022/10/14 09:25:34;;;;;;;3.53;3.23;;;-23.50;99.90;;;;;;5029385;28;20182;-76
2022/10/14 09:28:00;;;;;;;3.20;3.00;;;-22.40;99.90;;;;;;5034744;28;20194;-72
2022/10/14 09:30:32;;;;;;;2.40;2.30;;;-22.60;99.90;;;;;;5050048;28;20195;-76
2022/10/14 09:32:58;;;;;;;2.30;2.20;;;-18.10;99.90;;;;;;5017619;28;20298;-74
2022/10/14 09:35:40;;;;;;;2.77;2.53;;;-16.50;99.90;;;;;;5017547;28;20172;-74
2022/10/14 09:38:07;;;;;;;2.40;2.20;;;-21.40;99.90;;;;;;5020390;28;20581;-84
2022/10/14 09:40:57;;;;;;;2.20;2.10;;;-24.30;99.90;;;;;;5033513;28;20255;-73
2022/10/14 09:43:23;;;;;;;2.27;2.17;;;-33.00;99.90;;;;;;5034936;28;20486;-82
2022/10/14 09:46:07;;;;;;;2.97;2.67;;;-32.70;99.90;;;;;;5024812;28;20176;-70
2022/10/14 09:48:46;;;;;;;2.37;2.23;;;-29.50;99.90;;;;;;5020238;28;20190;-72
2022/10/14 09:51:44;;;;;;;1.90;1.80;;;-31.50;99.90;;;;;;5034710;28;20176;-70
2022/10/14 09:54:23;;;;;;;2.33;2.23;;;-27.40;99.90;;;;;;5014775;28;20193;-68
2022/10/14 09:56:49;;;;;;;2.67;2.53;;;-29.30;99.90;;;;;;5022759;28;20177;-70
2022/10/14 09:59:20;;;;;;;3.17;2.87;;;-27.60;99.90;;;;;;5043300;28;20189;-71
2022/10/14 10:01:50;;;;;;;2.90;2.40;;;-26.50;99.90;;;;;;5030375;28;20196;-77
2022/10/14 10:04:31;;;;;;;3.40;1.93;;;-24.80;99.90;;;;;;5020982;28;20185;-81
2022/10/14 10:06:59;;;;;;;2.40;2.20;;;-21.90;99.90;;;;;;5037571;28;20215;-79
2022/10/14 10:09:26;;;;;;;2.50;2.13;;;-22.10;99.90;;;;;;5027437;28;20184;-75
2022/10/14 10:11:52;;;;;;;2.50;2.30;;;-24.90;99.90;;;;;;5032975;28;20497;-80
2022/10/14 10:14:32;;;;;;;3.17;2.97;;;-23.90;99.90;;;;;;5028918;28;20592;-81
2022/10/14 10:17:08;;;;;;;2.30;2.20;;;-23.90;99.90;;;;;;5027459;28;20212;-80
2022/10/14 10:19:35;;;;;;;3.90;2.60;;;-21.80;99.90;;;;;;5029236;28;20172;-75
2022/10/14 10:22:22;;;;;;;3.27;3.10;;;-21.10;99.90;;;;;;5034488;28;20535;-79
2022/10/14 10:25:00;;;;;;;3.10;2.90;;;-23.90;99.90;;;;;;5034617;28;20199;-75
2022/10/14 10:27:37;;;;;;;7.33;3.50;;;-21.00;99.90;;;;;;5034188;28;20532;-79
2022/10/14 10:30:23;;;;;;;4.27;4.07;;;-20.10;99.90;;;;;;5031159;28;20250;-81
2022/10/14 10:32:58;;;;;;;3.77;3.50;;;-25.40;99.90;;;;;;5034405;28;20306;-80
2022/10/14 10:35:24;;;;;;;4.23;3.93;;;-21.30;99.90;;;;;;5037236;28;20184;-80
2022/10/14 10:38:06;;;;;;;3.23;3.03;;;-21.40;99.90;;;;;;5034959;28;20555;-85
2022/10/14 10:40:35;;;;;;;4.90;4.50;;;-17.80;99.90;;;;;;5043687;28;20592;-82
2022/10/14 10:43:18;;;;;;;3.97;3.47;;;-19.80;99.90;;;;;;5022943;28;20185;-78
2022/10/14 10:45:48;;;;;;;5.63;4.70;;;-16.60;99.90;;;;;;5022755;28;20182;-81
2022/10/14 10:48:19;;;;;;;4.33;4.03;;;-19.50;99.90;;;;;;5050810;28;20358;-79
2022/10/14 10:51:01;;;;;;;4.50;4.10;;;-16.30;99.90;;;;;;5023018;28;20189;-79
2022/10/14 10:53:43;;;;;;;6.00;5.50;;;-19.80;99.90;;;;;;5028292;28;20189;-80
2022/10/14 10:56:22;;;;;;;5.30;4.80;;;-16.60;99.90;;;;;;5028731;28;20608;-77
2022/10/14 10:58:55;;;;;;;5.47;4.50;;;-16.40;99.90;;;;;;5031493;28;20189;-80
2022/10/14 11:01:35;;;;;;;5.53;5.13;;;-27.20;99.90;;;;;;5030297;28;20199;-77
2022/10/14 11:04:41;;;;;;;4.43;4.13;;;-22.90;99.90;;;;;;5028767;28;20223;-78
2022/10/14 11:13:22;;;;;;;6.90;4.00;;;-22.10;99.90;;;;;;5029757;28;20682;-73
2022/10/14 11:16:32;;;;;;;4.93;3.97;;;-23.50;99.90;;;;;;5033426;28;20196;-77
2022/10/14 11:19:06;;;;;;;5.57;4.60;;;-19.70;99.90;;;;;;5014141;28;20223;-72
2022/10/14 11:21:57;;;;;;;5.90;5.40;;;-21.40;99.90;;;;;;5015958;28;20188;-77
2022/10/14 11:24:57;;;;;;;3.63;3.43;;;-20.70;99.90;;;;;;5031345;28;20196;-79
2022/10/14 11:27:28;;;;;;;2.90;2.80;;;-21.50;99.90;;;;;;5025416;28;20193;-75
2022/10/14 11:30:16;;;;;;;4.30;3.97;;;-18.50;99.90;;;;;;5036251;28;20608;-75
2022/10/14 11:32:56;;;;;;;13.73;10.50;;;-23.50;99.90;;;;;;5053513;28;20212;-71
2022/10/14 11:35:49;;;;;;;3.40;3.17;;;-23.60;99.90;;;;;;5028910;28;20288;-71
2022/10/14 11:38:45;;;;;;;3.17;2.87;;;-23.70;99.90;;;;;;5023840;28;20279;-71
2022/10/14 11:41:11;;;;;;;4.40;4.10;;;-22.80;99.90;;;;;;5024263;28;20211;-69
2022/10/14 11:44:03;;;;;;;5.93;4.90;;;-23.90;99.90;;;;;;5032399;28;20539;-75
2022/10/14 11:46:35;;;;;;;5.93;5.30;;;-24.30;99.90;;;;;;5033653;28;20618;-75
2022/10/14 11:49:12;;;;;;;6.57;5.97;;;-18.60;99.90;;;;;;5032140;28;20178;-77
2022/10/14 11:52:03;;;;;;;5.80;5.20;;;-20.90;99.90;;;;;;5038806;28;20343;-76
2022/10/14 11:54:36;;;;;;;8.07;7.37;;;-25.80;99.90;;;;;;5024985;28;20195;-74
2022/10/14 11:57:23;;;;;;;7.60;6.90;;;-25.50;99.90;;;;;;5048157;28;20517;-71
2022/10/14 12:03:15;;;;;;;10.10;8.93;;;-40.00;99.90;;;;;;5037412;28;20230;-74
2022/10/14 12:05:45;;;;;;;8.70;7.77;;;-40.00;99.90;;;;;;5026982;28;20208;-74
2022/10/14 12:08:33;;;;;;;7.40;6.70;;;-40.00;99.90;;;;;;5029487;28;20272;-77
2022/10/14 12:11:05;;;;;;;9.80;7.90;;;-40.00;99.90;;;;;;5031151;28;20185;-79
2022/10/14 12:13:51;;;;;;;8.03;6.37;;;-40.00;99.90;;;;;;5026568;28;20221;-77
2022/10/14 12:16:21;;;;;;;7.93;7.13;;;-40.00;99.90;;;;;;5034727;28;20247;-73
2022/10/14 12:18:52;;;;;;;6.97;6.37;;;-40.00;99.90;;;;;;5032993;28;21748;-77
2022/10/14 12:21:33;;;;;;;7.67;7.07;;;-40.00;99.90;;;;;;5033028;28;20506;-78
2022/10/14 12:24:30;;;;;;;6.60;6.10;;;-40.00;99.90;;;;;;5018934;28;20318;-75
2022/10/14 12:26:59;;;;;;;7.60;7.00;;;-40.00;99.90;;;;;;5026676;28;20188;-74
2022/10/14 12:29:30;;;;;;;8.30;7.70;;;-40.00;99.90;;;;;;5035437;28;20226;-76
2022/10/14 12:32:02;;;;;;;7.87;6.43;;;-40.00;99.90;;;;;;5036368;28;20228;-72
2022/10/14 12:34:37;;;;;;;8.23;7.53;;;-40.00;99.90;;;;;;5035099;28;20695;-76
2022/10/14 12:37:31;;;;;;;9.37;8.57;;;-40.00;99.90;;;;;;5032944;28;20179;-76
2022/10/14 12:40:04;;;;;;;8.90;8.00;;;-40.00;99.90;;;;;;5035429;28;20180;-72
2022/10/14 12:42:34;;;;;;;9.20;8.37;;;-40.00;99.90;;;;;;5026065;28;20178;-75
2022/10/14 12:45:13;;;;;;;10.03;9.13;;;-40.00;99.90;;;;;;5033791;28;20184;-76
2022/10/14 12:47:39;;;;;;;12.67;9.73;;;-40.00;99.90;;;;;;5031665;28;20185;-79
2022/10/14 12:50:14;;;;;;;10.67;9.57;;;-40.00;99.90;;;;;;5021798;28;20616;-74
2022/10/14 12:52:44;;;;;;;10.97;9.70;;;-40.00;99.90;;;;;;5026845;28;20488;-78
2022/10/14 12:55:19;;;;;;;10.10;9.30;;;-40.00;99.90;;;;;;5027286;28;20193;-77
2022/10/14 12:57:53;;;;;;;11.03;9.97;;;-40.00;99.90;;;;;;5029374;28;20226;-75
2022/10/14 13:00:22;;;;;;;12.27;9.53;;;-40.00;99.90;;;;;;5021555;28;20192;-80